sensor_id;sensor_type;location;lat;lon;timestamp;temperature;humidity
6018;DHT22;3037;51.068;13.780;2022-12-07T00:02:04;4.40;99.90
6018;DHT22;3037;51.068;13.780;2022-12-07T00:04:30;4.20;99.90
6018;DHT22;3037;51.068;13.780;2022-12-07T00:06:55;4.40;99.90
6018;DHT22;3037;51.068;13.780;2022-12-07T00:09:21;4.30;99.90
6018;DHT22;3037;51.068;13.780;2022-12-07T00:11:49;4.30;99.90
6018;DHT22;3037;51.068;13.780;2022-12-07T00:14:16;4.30;99.90
6018;DHT22;3037;51.068;13.780;2022-12-07T00:16:43;4.30;99.90
6018;DHT22;3037;51.068;13.780;2022-12-07T00:19:10;4.40;99.90
6018;DHT22;3037;51.068;13.780;2022-12-07T00:21:36;4.30;99.90
6018;DHT22;3037;51.068;13.780;2022-12-07T00:24:03;4.30;99.90
6018;DHT22;3037;51.068;13.780;2022-12-07T00:26:35;4.10;99.90
6018;DHT22;3037;51.068;13.780;2022-12-07T00:29:04;4.10;99.90
6018;DHT22;3037;51.068;13.780;2022-12-07T00:31:34;4.10;99.90
6018;DHT22;3037;51.068;13.780;2022-12-07T00:34:04;4.00;99.90
6018;DHT22;3037;51.068;13.780;2022-12-07T00:36:29;4.10;99.90
6018;DHT22;3037;51.068;13.780;2022-12-07T00:38:57;4.30;99.90
6018;DHT22;3037;51.068;13.780;2022-12-07T00:41:25;4.10;99.90
6018;DHT22;3037;51.068;13.780;2022-12-07T00:43:51;4.20;99.90
6018;DHT22;3037;51.068;13.780;2022-12-07T00:46:18;4.20;99.90
6018;DHT22;3037;51.068;13.780;2022-12-07T00:48:44;4.10;99.90
6018;DHT22;3037;51.068;13.780;2022-12-07T00:51:11;4.10;99.90
6018;DHT22;3037;51.068;13.780;2022-12-07T00:53:37;4.10;99.90
6018;DHT22;3037;51.068;13.780;2022-12-07T00:56:14;4.20;99.90
6018;DHT22;3037;51.068;13.780;2022-12-07T00:58:40;4.20;99.90
6018;DHT22;3037;51.068;13.780;2022-12-07T01:01:07;4.20;99.90
6018;DHT22;3037;51.068;13.780;2022-12-07T01:03:33;4.20;99.90
6018;DHT22;3037;51.068;13.780;2022-12-07T01:06:00;4.20;99.90
6018;DHT22;3037;51.068;13.780;2022-12-07T01:08:26;4.30;99.90
6018;DHT22;3037;51.068;13.780;2022-12-07T01:11:01;4.20;99.90
6018;DHT22;3037;51.068;13.780;2022-12-07T01:13:26;4.00;99.90
6018;DHT22;3037;51.068;13.780;2022-12-07T01:15:57;4.20;99.90
6018;DHT22;3037;51.068;13.780;2022-12-07T01:18:23;4.30;99.90
6018;DHT22;3037;51.068;13.780;2022-12-07T01:23:32;4.30;99.90
6018;DHT22;3037;51.068;13.780;2022-12-07T01:26:00;4.40;99.90
6018;DHT22;3037;51.068;13.780;2022-12-07T01:28:26;4.40;99.90
6018;DHT22;3037;51.068;13.780;2022-12-07T01:31:12;4.20;99.90
6018;DHT22;3037;51.068;13.780;2022-12-07T01:33:41;4.30;99.90
6018;DHT22;3037;51.068;13.780;2022-12-07T01:36:17;4.30;99.90
6018;DHT22;3037;51.068;13.780;2022-12-07T01:38:44;4.30;99.90
6018;DHT22;3037;51.068;13.780;2022-12-07T01:41:11;4.30;99.90
6018;DHT22;3037;51.068;13.780;2022-12-07T01:43:36;4.30;99.90
6018;DHT22;3037;51.068;13.780;2022-12-07T01:46:04;4.30;99.90
6018;DHT22;3037;51.068;13.780;2022-12-07T01:48:38;4.30;99.90
6018;DHT22;3037;51.068;13.780;2022-12-07T01:51:11;4.20;99.90
6018;DHT22;3037;51.068;13.780;2022-12-07T01:53:41;4.20;99.90
6018;DHT22;3037;51.068;13.780;2022-12-07T01:56:10;4.30;99.90
6018;DHT22;3037;51.068;13.780;2022-12-07T01:58:36;4.30;99.90
6018;DHT22;3037;51.068;13.780;2022-12-07T02:01:03;4.40;99.90
6018;DHT22;3037;51.068;13.780;2022-12-07T02:03:39;4.40;99.90
6018;DHT22;3037;51.068;13.780;2022-12-07T02:06:06;4.20;99.90
6018;DHT22;3037;51.068;13.780;2022-12-07T02:08:33;4.00;99.90
6018;DHT22;3037;51.068;13.780;2022-12-07T02:11:00;4.10;99.90
6018;DHT22;3037;51.068;13.780;2022-12-07T02:13:30;4.20;99.90
6018;DHT22;3037;51.068;13.780;2022-12-07T02:16:03;4.10;99.90
6018;DHT22;3037;51.068;13.780;2022-12-07T02:21:34;4.00;99.90
6018;DHT22;3037;51.068;13.780;2022-12-07T02:24:19;4.00;99.90
6018;DHT22;3037;51.068;13.780;2022-12-07T02:30:00;3.90;99.90
6018;DHT22;3037;51.068;13.780;2022-12-07T02:40:30;3.40;99.90
6018;DHT22;3037;51.068;13.780;2022-12-07T02:45:55;3.20;99.90
6018;DHT22;3037;51.068;13.780;2022-12-07T02:48:21;3.10;99.90
6018;DHT22;3037;51.068;13.780;2022-12-07T02:50:50;3.00;99.90
6018;DHT22;3037;51.068;13.780;2022-12-07T02:53:32;3.00;99.90
6018;DHT22;3037;51.068;13.780;2022-12-07T02:56:03;3.10;99.90
6018;DHT22;3037;51.068;13.780;2022-12-07T02:58:32;3.10;99.90
6018;DHT22;3037;51.068;13.780;2022-12-07T03:03:33;3.00;99.90
6018;DHT22;3037;51.068;13.780;2022-12-07T03:06:16;3.00;99.90
6018;DHT22;3037;51.068;13.780;2022-12-07T03:09:11;3.10;99.90
6018;DHT22;3037;51.068;13.780;2022-12-07T03:11:44;3.10;99.90
6018;DHT22;3037;51.068;13.780;2022-12-07T03:14:20;3.10;99.90
6018;DHT22;3037;51.068;13.780;2022-12-07T03:16:57;3.10;99.90
6018;DHT22;3037;51.068;13.780;2022-12-07T03:19:26;3.20;99.90
6018;DHT22;3037;51.068;13.780;2022-12-07T03:22:12;3.20;99.90
6018;DHT22;3037;51.068;13.780;2022-12-07T03:24:42;3.20;99.90
6018;DHT22;3037;51.068;13.780;2022-12-07T03:27:16;3.10;99.90
6018;DHT22;3037;51.068;13.780;2022-12-07T03:29:50;3.00;99.90
6018;DHT22;3037;51.068;13.780;2022-12-07T03:32:19;2.90;99.90
6018;DHT22;3037;51.068;13.780;2022-12-07T03:37:54;2.80;99.90
6018;DHT22;3037;51.068;13.780;2022-12-07T03:40:44;2.70;99.90
6018;DHT22;3037;51.068;13.780;2022-12-07T03:43:11;2.70;99.90
6018;DHT22;3037;51.068;13.780;2022-12-07T03:48:09;2.80;99.90
6018;DHT22;3037;51.068;13.780;2022-12-07T03:54:08;3.00;99.90
6018;DHT22;3037;51.068;13.780;2022-12-07T03:56:35;3.00;99.90
6018;DHT22;3037;51.068;13.780;2022-12-07T03:59:02;2.90;99.90
6018;DHT22;3037;51.068;13.780;2022-12-07T04:01:27;3.00;99.90
6018;DHT22;3037;51.068;13.780;2022-12-07T04:03:53;2.90;99.90
6018;DHT22;3037;51.068;13.780;2022-12-07T04:06:18;2.80;99.90
6018;DHT22;3037;51.068;13.780;2022-12-07T04:08:44;2.80;99.90
6018;DHT22;3037;51.068;13.780;2022-12-07T04:11:10;3.00;99.90
6018;DHT22;3037;51.068;13.780;2022-12-07T04:13:35;3.00;99.90
6018;DHT22;3037;51.068;13.780;2022-12-07T04:16:21;3.00;99.90
6018;DHT22;3037;51.068;13.780;2022-12-07T04:18:46;3.10;99.90
6018;DHT22;3037;51.068;13.780;2022-12-07T04:21:12;3.10;99.90
6018;DHT22;3037;51.068;13.780;2022-12-07T04:23:37;3.20;99.90
6018;DHT22;3037;51.068;13.780;2022-12-07T04:26:03;3.10;99.90
6018;DHT22;3037;51.068;13.780;2022-12-07T04:28:29;3.20;99.90
6018;DHT22;3037;51.068;13.780;2022-12-07T04:30:54;3.10;99.90
6018;DHT22;3037;51.068;13.780;2022-12-07T04:33:20;3.00;99.90
6018;DHT22;3037;51.068;13.780;2022-12-07T04:35:45;2.90;99.90
6018;DHT22;3037;51.068;13.780;2022-12-07T04:38:11;2.80;99.90
6018;DHT22;3037;51.068;13.780;2022-12-07T04:40:36;2.70;99.90
6018;DHT22;3037;51.068;13.780;2022-12-07T04:43:02;2.60;99.90
6018;DHT22;3037;51.068;13.780;2022-12-07T04:45:27;2.60;99.90
6018;DHT22;3037;51.068;13.780;2022-12-07T04:47:53;2.70;99.90
6018;DHT22;3037;51.068;13.780;2022-12-07T04:50:19;2.70;99.90
6018;DHT22;3037;51.068;13.780;2022-12-07T04:52:44;2.70;99.90
6018;DHT22;3037;51.068;13.780;2022-12-07T04:55:10;2.50;99.90
6018;DHT22;3037;51.068;13.780;2022-12-07T04:57:35;2.30;99.90
6018;DHT22;3037;51.068;13.780;2022-12-07T05:00:01;2.30;99.90
6018;DHT22;3037;51.068;13.780;2022-12-07T05:02:26;2.30;99.90
6018;DHT22;3037;51.068;13.780;2022-12-07T05:04:52;2.30;99.90
6018;DHT22;3037;51.068;13.780;2022-12-07T05:07:17;2.20;99.90
6018;DHT22;3037;51.068;13.780;2022-12-07T05:09:44;2.40;99.90
6018;DHT22;3037;51.068;13.780;2022-12-07T05:12:09;2.30;99.90
6018;DHT22;3037;51.068;13.780;2022-12-07T05:14:35;2.30;99.90
6018;DHT22;3037;51.068;13.780;2022-12-07T05:17:00;2.30;99.90
6018;DHT22;3037;51.068;13.780;2022-12-07T05:19:26;2.40;99.90
6018;DHT22;3037;51.068;13.780;2022-12-07T05:21:52;2.40;99.90
6018;DHT22;3037;51.068;13.780;2022-12-07T05:24:17;2.60;99.90
6018;DHT22;3037;51.068;13.780;2022-12-07T05:26:43;2.60;99.90
6018;DHT22;3037;51.068;13.780;2022-12-07T05:29:17;2.60;99.90
6018;DHT22;3037;51.068;13.780;2022-12-07T05:31:43;2.70;1.00
6018;DHT22;3037;51.068;13.780;2022-12-07T05:34:09;2.80;99.90
6018;DHT22;3037;51.068;13.780;2022-12-07T05:36:35;2.90;1.00
6018;DHT22;3037;51.068;13.780;2022-12-07T05:39:01;3.00;1.00
6018;DHT22;3037;51.068;13.780;2022-12-07T05:41:26;3.00;99.90
6018;DHT22;3037;51.068;13.780;2022-12-07T05:44:10;3.00;99.90
6018;DHT22;3037;51.068;13.780;2022-12-07T05:46:36;3.10;1.00
6018;DHT22;3037;51.068;13.780;2022-12-07T05:49:02;3.20;99.90
6018;DHT22;3037;51.068;13.780;2022-12-07T05:51:28;3.20;1.00
6018;DHT22;3037;51.068;13.780;2022-12-07T05:53:53;3.10;1.00
6018;DHT22;3037;51.068;13.780;2022-12-07T05:56:19;3.20;1.00
6018;DHT22;3037;51.068;13.780;2022-12-07T05:58:44;3.20;1.00
6018;DHT22;3037;51.068;13.780;2022-12-07T06:01:29;3.30;99.90
6018;DHT22;3037;51.068;13.780;2022-12-07T06:03:54;3.40;99.90
6018;DHT22;3037;51.068;13.780;2022-12-07T06:06:20;3.40;99.90
6018;DHT22;3037;51.068;13.780;2022-12-07T06:08:45;3.50;56.00
6018;DHT22;3037;51.068;13.780;2022-12-07T06:11:11;3.50;1.00
6018;DHT22;3037;51.068;13.780;2022-12-07T06:13:55;3.50;1.00
6018;DHT22;3037;51.068;13.780;2022-12-07T06:16:21;3.50;1.00
6018;DHT22;3037;51.068;13.780;2022-12-07T06:18:46;3.50;1.00
6018;DHT22;3037;51.068;13.780;2022-12-07T06:21:12;3.70;1.00
6018;DHT22;3037;51.068;13.780;2022-12-07T06:23:37;3.60;1.00
6018;DHT22;3037;51.068;13.780;2022-12-07T06:26:03;3.60;1.00
6018;DHT22;3037;51.068;13.780;2022-12-07T06:28:29;3.60;1.00
6018;DHT22;3037;51.068;13.780;2022-12-07T06:30:58;3.70;1.00
6018;DHT22;3037;51.068;13.780;2022-12-07T06:33:25;3.70;1.00
6018;DHT22;3037;51.068;13.780;2022-12-07T06:35:50;3.90;1.00
6018;DHT22;3037;51.068;13.780;2022-12-07T06:38:16;3.80;1.00
6018;DHT22;3037;51.068;13.780;2022-12-07T06:40:42;4.00;1.00
6018;DHT22;3037;51.068;13.780;2022-12-07T06:43:07;3.90;1.00
6018;DHT22;3037;51.068;13.780;2022-12-07T06:45:33;3.90;1.00
6018;DHT22;3037;51.068;13.780;2022-12-07T06:47:58;3.90;1.00
6018;DHT22;3037;51.068;13.780;2022-12-07T06:50:24;3.90;1.00
6018;DHT22;3037;51.068;13.780;2022-12-07T06:52:50;4.00;1.00
6018;DHT22;3037;51.068;13.780;2022-12-07T06:55:16;4.00;1.00
6018;DHT22;3037;51.068;13.780;2022-12-07T06:57:42;4.10;1.00
6018;DHT22;3037;51.068;13.780;2022-12-07T07:00:08;4.00;1.00
6018;DHT22;3037;51.068;13.780;2022-12-07T07:02:33;4.10;1.00
6018;DHT22;3037;51.068;13.780;2022-12-07T07:04:59;4.10;99.90
6018;DHT22;3037;51.068;13.780;2022-12-07T07:07:24;4.00;1.00
6018;DHT22;3037;51.068;13.780;2022-12-07T07:09:50;3.90;1.00
6018;DHT22;3037;51.068;13.780;2022-12-07T07:12:15;3.80;99.90
6018;DHT22;3037;51.068;13.780;2022-12-07T07:14:41;3.70;99.90
6018;DHT22;3037;51.068;13.780;2022-12-07T07:17:08;3.70;99.90
6018;DHT22;3037;51.068;13.780;2022-12-07T07:19:33;3.70;99.90
6018;DHT22;3037;51.068;13.780;2022-12-07T07:21:59;3.80;99.90
6018;DHT22;3037;51.068;13.780;2022-12-07T07:24:25;3.70;99.90
6018;DHT22;3037;51.068;13.780;2022-12-07T07:26:50;3.70;99.90
6018;DHT22;3037;51.068;13.780;2022-12-07T07:29:16;3.70;99.90
6018;DHT22;3037;51.068;13.780;2022-12-07T07:31:41;3.70;99.90
6018;DHT22;3037;51.068;13.780;2022-12-07T07:34:07;3.90;99.90
6018;DHT22;3037;51.068;13.780;2022-12-07T07:36:32;3.90;99.90
6018;DHT22;3037;51.068;13.780;2022-12-07T07:38:58;3.90;99.90
6018;DHT22;3037;51.068;13.780;2022-12-07T07:41:23;3.90;99.90
6018;DHT22;3037;51.068;13.780;2022-12-07T07:43:49;3.90;99.90
6018;DHT22;3037;51.068;13.780;2022-12-07T07:46:15;4.00;99.90
6018;DHT22;3037;51.068;13.780;2022-12-07T07:48:40;4.00;99.90
6018;DHT22;3037;51.068;13.780;2022-12-07T07:51:07;3.90;99.90
6018;DHT22;3037;51.068;13.780;2022-12-07T07:53:32;3.90;99.90
6018;DHT22;3037;51.068;13.780;2022-12-07T07:55:58;3.90;99.90
6018;DHT22;3037;51.068;13.780;2022-12-07T07:58:23;4.00;99.90
6018;DHT22;3037;51.068;13.780;2022-12-07T08:00:49;4.10;99.90
6018;DHT22;3037;51.068;13.780;2022-12-07T08:03:15;4.20;99.90
6018;DHT22;3037;51.068;13.780;2022-12-07T08:05:41;4.20;99.90
6018;DHT22;3037;51.068;13.780;2022-12-07T08:08:06;4.20;99.90
6018;DHT22;3037;51.068;13.780;2022-12-07T08:10:32;4.30;99.90
6018;DHT22;3037;51.068;13.780;2022-12-07T08:12:58;4.40;99.90
6018;DHT22;3037;51.068;13.780;2022-12-07T08:15:37;4.60;99.90
6018;DHT22;3037;51.068;13.780;2022-12-07T08:18:03;4.50;99.90
6018;DHT22;3037;51.068;13.780;2022-12-07T08:20:32;4.60;99.90
6018;DHT22;3037;51.068;13.780;2022-12-07T08:22:58;4.50;99.90
6018;DHT22;3037;51.068;13.780;2022-12-07T08:25:24;4.40;99.90
6018;DHT22;3037;51.068;13.780;2022-12-07T08:27:51;4.60;99.90
6018;DHT22;3037;51.068;13.780;2022-12-07T08:30:17;4.70;99.90
6018;DHT22;3037;51.068;13.780;2022-12-07T08:32:47;4.80;99.90
6018;DHT22;3037;51.068;13.780;2022-12-07T08:35:13;5.00;99.90
6018;DHT22;3037;51.068;13.780;2022-12-07T08:37:39;5.20;99.90
6018;DHT22;3037;51.068;13.780;2022-12-07T08:40:06;5.50;99.90
6018;DHT22;3037;51.068;13.780;2022-12-07T08:42:33;5.40;99.90
6018;DHT22;3037;51.068;13.780;2022-12-07T08:45:10;5.20;99.90
6018;DHT22;3037;51.068;13.780;2022-12-07T08:47:38;5.20;99.90
6018;DHT22;3037;51.068;13.780;2022-12-07T08:50:07;5.20;99.90
6018;DHT22;3037;51.068;13.780;2022-12-07T08:52:34;5.10;99.90
6018;DHT22;3037;51.068;13.780;2022-12-07T08:55:01;5.20;99.90
6018;DHT22;3037;51.068;13.780;2022-12-07T08:57:28;5.30;99.90
6018;DHT22;3037;51.068;13.780;2022-12-07T08:59:55;5.40;99.90
6018;DHT22;3037;51.068;13.780;2022-12-07T09:02:21;5.50;99.90
6018;DHT22;3037;51.068;13.780;2022-12-07T09:04:46;5.40;99.90
6018;DHT22;3037;51.068;13.780;2022-12-07T09:07:12;5.40;99.90
6018;DHT22;3037;51.068;13.780;2022-12-07T09:09:38;5.40;99.90
6018;DHT22;3037;51.068;13.780;2022-12-07T09:12:03;5.60;99.90
6018;DHT22;3037;51.068;13.780;2022-12-07T09:14:29;5.70;99.90
6018;DHT22;3037;51.068;13.780;2022-12-07T09:16:55;5.60;99.90
6018;DHT22;3037;51.068;13.780;2022-12-07T09:19:20;5.70;99.90
6018;DHT22;3037;51.068;13.780;2022-12-07T09:21:46;5.70;99.90
6018;DHT22;3037;51.068;13.780;2022-12-07T09:24:15;5.60;99.90
6018;DHT22;3037;51.068;13.780;2022-12-07T09:26:40;5.90;99.90
6018;DHT22;3037;51.068;13.780;2022-12-07T09:29:06;6.30;99.90
6018;DHT22;3037;51.068;13.780;2022-12-07T09:31:31;6.70;99.90
6018;DHT22;3037;51.068;13.780;2022-12-07T09:33:59;6.80;99.90
6018;DHT22;3037;51.068;13.780;2022-12-07T09:36:25;6.60;99.90
6018;DHT22;3037;51.068;13.780;2022-12-07T09:38:51;6.40;99.90
6018;DHT22;3037;51.068;13.780;2022-12-07T09:41:17;6.50;99.90
6018;DHT22;3037;51.068;13.780;2022-12-07T09:43:43;6.70;99.90
6018;DHT22;3037;51.068;13.780;2022-12-07T09:46:14;6.50;99.90
6018;DHT22;3037;51.068;13.780;2022-12-07T09:48:42;6.20;99.90
6018;DHT22;3037;51.068;13.780;2022-12-07T09:51:26;6.40;99.90
6018;DHT22;3037;51.068;13.780;2022-12-07T09:53:54;8.40;99.90
6018;DHT22;3037;51.068;13.780;2022-12-07T09:56:20;8.70;93.90
6018;DHT22;3037;51.068;13.780;2022-12-07T09:58:47;8.50;95.10
6018;DHT22;3037;51.068;13.780;2022-12-07T10:01:19;8.30;94.00
6018;DHT22;3037;51.068;13.780;2022-12-07T10:06:35;7.50;99.90
6018;DHT22;3037;51.068;13.780;2022-12-07T10:09:00;12.00;61.10
6018;DHT22;3037;51.068;13.780;2022-12-07T10:11:26;11.90;32.40
6018;DHT22;3037;51.068;13.780;2022-12-07T10:13:52;11.40;47.50
6018;DHT22;3037;51.068;13.780;2022-12-07T10:18:51;16.70;1.00
6018;DHT22;3037;51.068;13.780;2022-12-07T10:21:21;17.70;1.00
6018;DHT22;3037;51.068;13.780;2022-12-07T10:24:22;19.10;1.00
6018;DHT22;3037;51.068;13.780;2022-12-07T10:26:49;18.30;1.00
6018;DHT22;3037;51.068;13.780;2022-12-07T10:29:31;18.50;1.00
6018;DHT22;3037;51.068;13.780;2022-12-07T10:32:24;17.80;1.00
6018;DHT22;3037;51.068;13.780;2022-12-07T10:34:52;13.70;1.00
6018;DHT22;3037;51.068;13.780;2022-12-07T10:37:40;12.00;1.00
6018;DHT22;3037;51.068;13.780;2022-12-07T10:40:27;10.80;1.00
6018;DHT22;3037;51.068;13.780;2022-12-07T10:43:13;9.70;29.60
6018;DHT22;3037;51.068;13.780;2022-12-07T10:46:07;9.10;55.70
6018;DHT22;3037;51.068;13.780;2022-12-07T10:54:26;7.80;94.00
6018;DHT22;3037;51.068;13.780;2022-12-07T11:02:19;6.70;99.90
6018;DHT22;3037;51.068;13.780;2022-12-07T11:27:54;6.70;99.90
6018;DHT22;3037;51.068;13.780;2022-12-07T11:30:57;6.50;99.90
6018;DHT22;3037;51.068;13.780;2022-12-07T11:33:37;6.50;99.90
6018;DHT22;3037;51.068;13.780;2022-12-07T11:36:37;6.70;99.90
6018;DHT22;3037;51.068;13.780;2022-12-07T11:42:01;6.50;99.90
6018;DHT22;3037;51.068;13.780;2022-12-07T11:44:50;6.20;99.90
6018;DHT22;3037;51.068;13.780;2022-12-07T11:50:08;5.20;99.90
6018;DHT22;3037;51.068;13.780;2022-12-07T11:55:26;5.30;99.90
6018;DHT22;3037;51.068;13.780;2022-12-07T12:00:48;5.60;99.90
6018;DHT22;3037;51.068;13.780;2022-12-07T12:03:21;5.40;99.90
6018;DHT22;3037;51.068;13.780;2022-12-07T12:05:50;5.60;99.90
6018;DHT22;3037;51.068;13.780;2022-12-07T12:08:23;5.70;99.90
6018;DHT22;3037;51.068;13.780;2022-12-07T12:11:07;5.80;99.90
6018;DHT22;3037;51.068;13.780;2022-12-07T12:19:40;6.10;99.90
6018;DHT22;3037;51.068;13.780;2022-12-07T12:22:20;6.10;99.90
6018;DHT22;3037;51.068;13.780;2022-12-07T12:24:51;6.00;99.90
6018;DHT22;3037;51.068;13.780;2022-12-07T12:27:30;6.10;99.90
6018;DHT22;3037;51.068;13.780;2022-12-07T12:30:02;6.00;99.90
6018;DHT22;3037;51.068;13.780;2022-12-07T12:32:39;6.10;99.90
6018;DHT22;3037;51.068;13.780;2022-12-07T12:35:28;6.10;99.90
6018;DHT22;3037;51.068;13.780;2022-12-07T12:38:33;6.10;99.90
6018;DHT22;3037;51.068;13.780;2022-12-07T12:41:00;6.00;99.90
6018;DHT22;3037;51.068;13.780;2022-12-07T12:43:47;6.00;99.90
6018;DHT22;3037;51.068;13.780;2022-12-07T12:51:51;6.10;99.90
6018;DHT22;3037;51.068;13.780;2022-12-07T12:54:26;6.10;99.90
6018;DHT22;3037;51.068;13.780;2022-12-07T12:57:17;5.90;99.90
6018;DHT22;3037;51.068;13.780;2022-12-07T13:02:27;5.90;99.90
6018;DHT22;3037;51.068;13.780;2022-12-07T13:13:03;5.40;99.90
6018;DHT22;3037;51.068;13.780;2022-12-07T13:26:01;4.20;99.90
6018;DHT22;3037;51.068;13.780;2022-12-07T13:28:34;4.20;99.90
6018;DHT22;3037;51.068;13.780;2022-12-07T13:33:30;4.20;99.90
6018;DHT22;3037;51.068;13.780;2022-12-07T13:35:59;4.40;99.90
6018;DHT22;3037;51.068;13.780;2022-12-07T13:38:29;4.40;99.90
6018;DHT22;3037;51.068;13.780;2022-12-07T13:43:30;4.30;99.90
6018;DHT22;3037;51.068;13.780;2022-12-07T13:45:59;4.30;99.90
6018;DHT22;3037;51.068;13.780;2022-12-07T13:48:35;4.30;99.90
6018;DHT22;3037;51.068;13.780;2022-12-07T13:51:04;4.50;99.90
6018;DHT22;3037;51.068;13.780;2022-12-07T13:53:30;4.60;99.90
6018;DHT22;3037;51.068;13.780;2022-12-07T13:56:00;4.80;99.90
6018;DHT22;3037;51.068;13.780;2022-12-07T13:58:31;4.90;99.90
6018;DHT22;3037;51.068;13.780;2022-12-07T14:00:58;4.60;99.90
6018;DHT22;3037;51.068;13.780;2022-12-07T14:03:31;4.70;99.90
6018;DHT22;3037;51.068;13.780;2022-12-07T14:06:25;4.70;99.90
6018;DHT22;3037;51.068;13.780;2022-12-07T14:09:21;4.70;99.90
6018;DHT22;3037;51.068;13.780;2022-12-07T14:11:48;4.90;99.90
6018;DHT22;3037;51.068;13.780;2022-12-07T14:14:20;4.80;99.90
6018;DHT22;3037;51.068;13.780;2022-12-07T14:17:02;4.70;99.90
6018;DHT22;3037;51.068;13.780;2022-12-07T14:19:42;4.70;99.90
6018;DHT22;3037;51.068;13.780;2022-12-07T14:22:18;4.70;99.90
6018;DHT22;3037;51.068;13.780;2022-12-07T14:24:44;4.70;99.90
6018;DHT22;3037;51.068;13.780;2022-12-07T14:27:22;4.70;99.90
6018;DHT22;3037;51.068;13.780;2022-12-07T14:29:48;4.80;99.90
6018;DHT22;3037;51.068;13.780;2022-12-07T14:32:24;4.70;99.90
6018;DHT22;3037;51.068;13.780;2022-12-07T14:35:12;4.80;99.90
6018;DHT22;3037;51.068;13.780;2022-12-07T14:37:40;5.00;99.90
6018;DHT22;3037;51.068;13.780;2022-12-07T14:40:06;5.00;99.90
6018;DHT22;3037;51.068;13.780;2022-12-07T14:42:33;4.90;99.90
6018;DHT22;3037;51.068;13.780;2022-12-07T14:44:59;5.00;99.90
6018;DHT22;3037;51.068;13.780;2022-12-07T14:47:25;4.90;99.90
6018;DHT22;3037;51.068;13.780;2022-12-07T14:49:52;5.00;99.90
6018;DHT22;3037;51.068;13.780;2022-12-07T14:52:21;5.00;99.90
6018;DHT22;3037;51.068;13.780;2022-12-07T14:54:47;4.90;99.90
6018;DHT22;3037;51.068;13.780;2022-12-07T14:57:12;4.80;99.90
6018;DHT22;3037;51.068;13.780;2022-12-07T14:59:38;4.70;99.90
6018;DHT22;3037;51.068;13.780;2022-12-07T15:02:05;4.60;99.90
6018;DHT22;3037;51.068;13.780;2022-12-07T15:04:30;4.70;99.90
6018;DHT22;3037;51.068;13.780;2022-12-07T15:07:01;4.80;99.90
6018;DHT22;3037;51.068;13.780;2022-12-07T15:09:27;4.90;99.90
6018;DHT22;3037;51.068;13.780;2022-12-07T15:11:52;4.90;99.90
6018;DHT22;3037;51.068;13.780;2022-12-07T15:14:18;5.00;99.90
6018;DHT22;3037;51.068;13.780;2022-12-07T15:16:44;4.90;99.90
6018;DHT22;3037;51.068;13.780;2022-12-07T15:19:15;4.90;99.90
6018;DHT22;3037;51.068;13.780;2022-12-07T15:21:41;4.80;99.90
6018;DHT22;3037;51.068;13.780;2022-12-07T15:24:09;4.90;99.90
6018;DHT22;3037;51.068;13.780;2022-12-07T15:26:35;4.90;99.90
6018;DHT22;3037;51.068;13.780;2022-12-07T15:29:01;4.90;99.90
6018;DHT22;3037;51.068;13.780;2022-12-07T15:31:26;5.00;99.90
6018;DHT22;3037;51.068;13.780;2022-12-07T15:33:52;5.10;99.90
6018;DHT22;3037;51.068;13.780;2022-12-07T15:36:20;4.90;99.90
6018;DHT22;3037;51.068;13.780;2022-12-07T15:38:47;5.00;99.90
6018;DHT22;3037;51.068;13.780;2022-12-07T15:41:12;5.00;99.90
6018;DHT22;3037;51.068;13.780;2022-12-07T15:43:38;5.10;99.90
6018;DHT22;3037;51.068;13.780;2022-12-07T15:46:22;5.10;99.90
6018;DHT22;3037;51.068;13.780;2022-12-07T15:48:47;5.20;99.90
6018;DHT22;3037;51.068;13.780;2022-12-07T15:51:13;5.40;99.90
6018;DHT22;3037;51.068;13.780;2022-12-07T15:53:39;5.20;99.90
6018;DHT22;3037;51.068;13.780;2022-12-07T15:56:08;5.10;99.90
6018;DHT22;3037;51.068;13.780;2022-12-07T15:58:34;5.10;99.90
6018;DHT22;3037;51.068;13.780;2022-12-07T16:00:59;5.00;99.90
6018;DHT22;3037;51.068;13.780;2022-12-07T16:03:26;5.00;99.90
6018;DHT22;3037;51.068;13.780;2022-12-07T16:05:52;4.90;99.90
6018;DHT22;3037;51.068;13.780;2022-12-07T16:08:18;4.80;99.90
6018;DHT22;3037;51.068;13.780;2022-12-07T16:10:44;4.60;99.90
6018;DHT22;3037;51.068;13.780;2022-12-07T16:13:11;4.60;99.90
6018;DHT22;3037;51.068;13.780;2022-12-07T16:15:40;4.60;99.90
6018;DHT22;3037;51.068;13.780;2022-12-07T16:18:06;4.60;99.90
6018;DHT22;3037;51.068;13.780;2022-12-07T16:20:32;4.70;99.90
6018;DHT22;3037;51.068;13.780;2022-12-07T16:22:58;4.80;99.90
6018;DHT22;3037;51.068;13.780;2022-12-07T16:25:23;4.80;99.90
6018;DHT22;3037;51.068;13.780;2022-12-07T16:27:50;4.80;99.90
6018;DHT22;3037;51.068;13.780;2022-12-07T16:30:16;4.80;99.90
6018;DHT22;3037;51.068;13.780;2022-12-07T16:32:42;4.80;99.90
6018;DHT22;3037;51.068;13.780;2022-12-07T16:35:08;4.80;99.90
6018;DHT22;3037;51.068;13.780;2022-12-07T16:37:34;4.80;99.90
6018;DHT22;3037;51.068;13.780;2022-12-07T16:39:59;4.80;99.90
6018;DHT22;3037;51.068;13.780;2022-12-07T16:42:25;4.70;99.90
6018;DHT22;3037;51.068;13.780;2022-12-07T16:44:51;4.70;99.90
6018;DHT22;3037;51.068;13.780;2022-12-07T16:47:17;4.70;99.90
6018;DHT22;3037;51.068;13.780;2022-12-07T16:49:43;4.70;99.90
6018;DHT22;3037;51.068;13.780;2022-12-07T16:52:08;4.70;99.90
6018;DHT22;3037;51.068;13.780;2022-12-07T16:54:35;4.80;99.90
6018;DHT22;3037;51.068;13.780;2022-12-07T16:57:01;4.90;99.90
6018;DHT22;3037;51.068;13.780;2022-12-07T16:59:27;4.70;99.90
6018;DHT22;3037;51.068;13.780;2022-12-07T17:01:52;4.70;99.90
6018;DHT22;3037;51.068;13.780;2022-12-07T17:04:18;4.70;99.90
6018;DHT22;3037;51.068;13.780;2022-12-07T17:06:43;4.80;99.90
6018;DHT22;3037;51.068;13.780;2022-12-07T17:09:09;4.80;99.90
6018;DHT22;3037;51.068;13.780;2022-12-07T17:11:37;4.80;99.90
6018;DHT22;3037;51.068;13.780;2022-12-07T17:14:02;4.70;99.90
6018;DHT22;3037;51.068;13.780;2022-12-07T17:16:46;4.60;99.90
6018;DHT22;3037;51.068;13.780;2022-12-07T17:19:14;4.60;99.90
6018;DHT22;3037;51.068;13.780;2022-12-07T17:21:41;4.90;99.90
6018;DHT22;3037;51.068;13.780;2022-12-07T17:24:09;4.80;99.90
6018;DHT22;3037;51.068;13.780;2022-12-07T17:26:35;4.70;99.90
6018;DHT22;3037;51.068;13.780;2022-12-07T17:29:01;4.70;99.90
6018;DHT22;3037;51.068;13.780;2022-12-07T17:31:27;4.70;99.90
6018;DHT22;3037;51.068;13.780;2022-12-07T17:33:52;4.60;99.90
6018;DHT22;3037;51.068;13.780;2022-12-07T17:36:23;4.70;99.90
6018;DHT22;3037;51.068;13.780;2022-12-07T17:38:50;4.50;99.90
6018;DHT22;3037;51.068;13.780;2022-12-07T17:41:24;6.50;99.90
6018;DHT22;3037;51.068;13.780;2022-12-07T17:44:11;6.20;99.90
6018;DHT22;3037;51.068;13.780;2022-12-07T17:46:38;5.20;99.90
6018;DHT22;3037;51.068;13.780;2022-12-07T17:49:04;4.70;99.90
6018;DHT22;3037;51.068;13.780;2022-12-07T17:51:31;4.70;99.90
6018;DHT22;3037;51.068;13.780;2022-12-07T17:54:16;4.70;99.90
6018;DHT22;3037;51.068;13.780;2022-12-07T17:56:42;4.70;99.90
6018;DHT22;3037;51.068;13.780;2022-12-07T17:59:07;4.60;99.90
6018;DHT22;3037;51.068;13.780;2022-12-07T18:01:34;4.70;99.90
6018;DHT22;3037;51.068;13.780;2022-12-07T18:04:00;4.70;99.90
6018;DHT22;3037;51.068;13.780;2022-12-07T18:06:25;4.80;1.00
6018;DHT22;3037;51.068;13.780;2022-12-07T18:08:51;4.90;1.00
6018;DHT22;3037;51.068;13.780;2022-12-07T18:11:17;4.80;1.00
6018;DHT22;3037;51.068;13.780;2022-12-07T18:13:43;4.80;1.00
6018;DHT22;3037;51.068;13.780;2022-12-07T18:16:12;4.80;99.90